createdAt,value
2019-06-01T00:01:31.860Z,17.44
2019-06-01T00:04:01.822Z,17.48
2019-06-01T00:06:31.847Z,17.59
2019-06-01T00:09:02.943Z,17.87
2019-06-01T00:11:32.080Z,18.03
2019-06-01T00:14:03.738Z,17.69
2019-06-01T00:16:33.018Z,17.93
2019-06-01T00:19:03.724Z,17.70
2019-06-01T00:21:32.880Z,17.71
2019-06-01T00:24:02.176Z,17.37
2019-06-01T00:26:32.419Z,17.19
2019-06-01T00:29:04.040Z,17.31
2019-06-01T00:31:33.196Z,17.65
2019-06-01T00:34:03.212Z,17.70
2019-06-01T00:36:32.367Z,17.39
2019-06-01T00:39:02.708Z,17.23
2019-06-01T00:41:31.886Z,16.93
2019-06-01T00:44:01.128Z,16.70
2019-06-01T00:46:33.336Z,16.73
2019-06-01T00:49:02.496Z,16.60
2019-06-01T00:51:31.769Z,16.49
2019-06-01T00:54:02.881Z,16.20
2019-06-01T00:56:33.171Z,16.46
2019-06-01T00:59:04.719Z,16.26
2019-06-01T01:01:33.919Z,16.31
2019-06-01T01:04:03.077Z,7.59
2019-06-01T01:06:32.201Z,16.38
2019-06-01T01:09:06.094Z,16.23
2019-06-01T01:11:39.800Z,15.94
2019-06-01T01:14:14.841Z,16.00
2019-06-01T01:16:49.496Z,15.87
2019-06-01T01:19:18.766Z,15.86
2019-06-01T01:21:48.297Z,15.90
2019-06-01T01:24:17.439Z,15.83
2019-06-01T01:26:48.816Z,15.79
2019-06-01T01:29:22.348Z,15.71
2019-06-01T01:31:51.765Z,15.62
2019-06-01T01:34:20.853Z,15.66
2019-06-01T01:36:50.046Z,15.44
2019-06-01T01:39:22.779Z,15.55
2019-06-01T01:41:52.193Z,15.58
2019-06-01T01:44:21.620Z,16.04
2019-06-01T01:46:50.819Z,15.71
2019-06-01T01:49:19.992Z,15.81
2019-06-01T01:51:50.401Z,15.73
2019-06-01T01:54:24.587Z,16.14
2019-06-01T01:56:58.245Z,15.85
2019-06-01T01:59:29.122Z,15.60
2019-06-01T02:01:58.661Z,15.74
2019-06-01T02:04:30.053Z,16.09
2019-06-01T02:07:02.408Z,16.20
2019-06-01T02:09:34.585Z,16.56
2019-06-01T02:12:03.859Z,16.22
2019-06-01T02:14:34.142Z,16.21
2019-06-01T02:17:06.432Z,16.43
2019-06-01T02:19:37.918Z,16.48
2019-06-01T02:22:07.046Z,16.02
2019-06-01T02:24:39.727Z,15.87
2019-06-01T02:27:08.919Z,15.77
2019-06-01T02:29:38.054Z,16.02
2019-06-01T02:32:07.261Z,16.31
2019-06-01T02:34:37.981Z,16.01
2019-06-01T02:37:07.124Z,16.02
2019-06-01T02:39:36.445Z,15.69
2019-06-01T02:42:08.611Z,15.87
2019-06-01T02:44:39.036Z,15.86
2019-06-01T02:47:08.591Z,16.18
2019-06-01T02:49:38.956Z,16.10
2019-06-01T02:52:08.561Z,15.78
2019-06-01T02:54:37.743Z,15.79
2019-06-01T02:57:07.350Z,16.03
2019-06-01T02:59:39.775Z,16.19
2019-06-01T03:02:13.907Z,16.03
2019-06-01T03:04:40.788Z,16.06
2019-06-01T03:07:10.400Z,15.78
2019-06-01T03:09:43.594Z,16.04
2019-06-01T03:12:14.111Z,16.38
2019-06-01T03:14:45.470Z,16.33
2019-06-01T03:17:18.871Z,15.83
2019-06-01T03:19:49.504Z,16.12
2019-06-01T03:22:23.110Z,16.27
2019-06-01T03:24:54.070Z,16.23
2019-06-01T03:27:28.947Z,16.39
2019-06-01T03:30:00.552Z,15.97
2019-06-01T03:32:36.931Z,15.92
2019-06-01T03:35:01.023Z,16.22
2019-06-01T03:37:30.953Z,15.65
2019-06-01T03:40:01.085Z,15.44
2019-06-01T03:42:33.010Z,15.32
2019-06-01T03:45:05.547Z,15.49
2019-06-01T03:47:34.923Z,14.92
2019-06-01T03:50:04.843Z,14.98
2019-06-01T03:52:36.057Z,14.97
2019-06-01T03:55:09.913Z,15.21
2019-06-01T03:57:39.209Z,15.31
2019-06-01T04:00:12.028Z,14.97
2019-06-01T04:02:41.312Z,15.11
2019-06-01T04:05:11.539Z,13.94
2019-06-01T04:07:44.093Z,15.51
2019-06-01T04:10:16.434Z,15.53
2019-06-01T04:12:45.588Z,15.37
2019-06-01T04:15:16.804Z,16.05
2019-06-01T04:17:46.009Z,16.24
2019-06-01T04:20:15.732Z,16.24
2019-06-01T04:22:45.672Z,16.77
2019-06-01T04:25:15.376Z,16.08
2019-06-01T04:27:46.962Z,16.14
2019-06-01T04:30:17.848Z,16.44
2019-06-01T04:32:50.303Z,16.37
2019-06-01T04:35:21.126Z,16.29
2019-06-01T04:37:51.308Z,16.53
2019-06-01T04:40:22.076Z,17.28
2019-06-01T04:42:54.172Z,17.73
2019-06-01T04:45:23.380Z,17.08
2019-06-01T04:47:52.628Z,17.12
2019-06-01T04:50:24.865Z,17.43
2019-06-01T04:52:54.022Z,16.99
2019-06-01T04:55:28.461Z,16.65
2019-06-01T04:57:57.659Z,17.32
2019-06-01T05:00:28.059Z,17.04
2019-06-01T05:03:10.331Z,17.95
2019-06-01T05:05:39.994Z,17.55
2019-06-01T05:08:09.428Z,18.71
2019-06-01T05:10:41.935Z,18.41
2019-06-01T05:13:11.516Z,18.75
2019-06-01T05:15:40.823Z,19.05
2019-06-01T05:18:10.176Z,19.41
2019-06-01T05:20:39.362Z,20.16
2019-06-01T05:23:08.608Z,20.41
2019-06-01T05:25:40.381Z,20.30
2019-06-01T05:28:09.530Z,19.47
2019-06-01T05:30:42.072Z,20.19
2019-06-01T05:33:26.571Z,19.74
2019-06-01T05:35:47.982Z,18.68
2019-06-01T05:38:24.053Z,18.88
2019-06-01T05:40:54.742Z,19.54
2019-06-01T05:43:27.674Z,19.24
2019-06-01T05:45:56.824Z,19.28
2019-06-01T05:48:30.530Z,18.67
2019-06-01T05:50:57.636Z,18.81
2019-06-01T05:53:29.970Z,19.40
2019-06-01T05:56:02.811Z,19.66
2019-06-01T05:58:32.386Z,19.51
2019-06-01T06:01:08.105Z,19.41
2019-06-01T06:03:40.429Z,19.21
2019-06-01T06:06:08.352Z,20.47
2019-06-01T06:08:38.599Z,19.58
2019-06-01T06:11:14.915Z,19.98
2019-06-01T06:13:44.359Z,20.40
2019-06-01T06:16:13.846Z,21.09
2019-06-01T06:18:46.317Z,21.76
2019-06-01T06:21:20.303Z,21.87
2019-06-01T06:23:49.789Z,21.92
2019-06-01T06:26:20.491Z,21.97
2019-06-01T06:28:52.368Z,22.20
2019-06-01T06:31:21.711Z,22.53
2019-06-01T06:33:56.973Z,23.20
2019-06-01T06:36:28.227Z,22.67
2019-06-01T06:38:57.854Z,22.78
2019-06-01T06:41:31.477Z,22.89
2019-06-01T06:44:03.389Z,23.32
2019-06-01T06:46:34.177Z,22.90
2019-06-01T06:49:03.369Z,21.88
2019-06-01T06:51:32.879Z,22.34
2019-06-01T06:54:04.526Z,22.26
2019-06-01T06:56:35.470Z,22.26
2019-06-01T06:59:04.604Z,23.28
2019-06-01T07:01:33.795Z,22.96
2019-06-01T07:04:12.702Z,23.36
2019-06-01T07:06:34.991Z,23.73
2019-06-01T07:09:05.572Z,23.74
2019-06-01T07:11:35.438Z,23.56
2019-06-01T07:14:05.009Z,23.51
2019-06-01T07:16:34.436Z,22.52
2019-06-01T07:19:07.376Z,23.73
2019-06-01T07:21:38.928Z,23.13
2019-06-01T07:24:10.953Z,22.50
2019-06-01T07:26:40.350Z,23.58
2019-06-01T07:29:11.548Z,23.89
2019-06-01T07:31:46.193Z,24.17
2019-06-01T07:34:31.053Z,24.49
2019-06-01T07:36:49.609Z,24.08
2019-06-01T07:39:18.776Z,24.44
2019-06-01T07:41:49.308Z,24.10
2019-06-01T07:44:22.645Z,24.60
2019-06-01T07:46:57.982Z,24.36
2019-06-01T07:49:29.155Z,24.14
2019-06-01T07:52:12.833Z,22.37
2019-06-01T07:54:36.973Z,23.34
2019-06-01T07:57:06.090Z,23.68
2019-06-01T07:59:36.433Z,24.49
2019-06-01T08:02:05.991Z,24.64
2019-06-01T08:04:51.856Z,24.74
2019-06-01T08:07:06.322Z,24.42
2019-06-01T08:09:36.557Z,24.34
2019-06-01T08:12:07.365Z,23.95
2019-06-01T08:14:36.483Z,24.53
2019-06-01T08:17:09.281Z,24.19
2019-06-01T08:19:44.461Z,24.55
2019-06-01T08:22:14.077Z,24.46
2019-06-01T08:24:44.867Z,24.53
2019-06-01T08:27:15.198Z,24.72
2019-06-01T08:29:44.330Z,25.15
2019-06-01T08:32:17.094Z,25.20
2019-06-01T08:34:46.698Z,24.13
2019-06-01T08:37:19.074Z,24.33
2019-06-01T08:39:48.977Z,24.87
2019-06-01T08:42:18.375Z,25.15
2019-06-01T08:44:47.556Z,24.94
2019-06-01T08:47:19.685Z,24.80
2019-06-01T08:49:48.828Z,24.44
2019-06-01T08:52:18.339Z,24.46
2019-06-01T08:54:48.843Z,24.66
2019-06-01T08:57:17.961Z,24.79
2019-06-01T08:59:47.605Z,24.93
2019-06-01T09:02:17.293Z,24.83
2019-06-01T09:04:49.374Z,24.61
2019-06-01T09:07:18.689Z,24.94
2019-06-01T09:09:47.856Z,24.88
2019-06-01T09:12:18.235Z,24.74
2019-06-01T09:14:48.583Z,25.12
2019-06-01T09:17:18.916Z,25.03
2019-06-01T09:19:48.356Z,25.08
2019-06-01T09:22:23.845Z,25.27
2019-06-01T09:25:18.902Z,25.47
2019-06-01T09:27:57.022Z,25.74
2019-06-01T09:30:27.884Z,25.18
2019-06-01T09:33:06.103Z,25.69
2019-06-01T09:35:54.348Z,24.84
2019-06-01T09:38:12.822Z,24.45
2019-06-01T09:40:42.798Z,24.53
2019-06-01T09:43:15.379Z,24.97
2019-06-01T09:45:47.394Z,25.70
2019-06-01T09:48:29.977Z,25.92
2019-06-01T09:50:56.834Z,25.81
2019-06-01T09:53:28.980Z,25.78
2019-06-01T09:55:59.981Z,25.60
2019-06-01T09:58:34.858Z,25.60
2019-06-01T10:01:09.670Z,25.62
2019-06-01T10:03:39.741Z,25.81
2019-06-01T10:06:13.953Z,26.21
2019-06-01T10:08:42.506Z,25.93
2019-06-01T10:11:13.099Z,25.82
2019-06-01T10:13:46.130Z,26.06
2019-06-01T10:16:24.307Z,25.81
2019-06-01T10:18:57.423Z,25.96
2019-06-01T10:21:26.936Z,25.71
2019-06-01T10:23:56.118Z,25.37
2019-06-01T10:26:26.975Z,25.86
2019-06-01T10:28:57.397Z,25.85
2019-06-01T10:31:28.273Z,25.85
2019-06-01T10:33:57.609Z,26.16
2019-06-01T10:36:31.923Z,26.31
2019-06-01T10:39:01.543Z,25.92
2019-06-01T10:41:33.235Z,25.97
2019-06-01T10:44:04.054Z,26.01
2019-06-01T10:46:33.863Z,26.68
2019-06-01T10:49:08.274Z,26.58
2019-06-01T10:51:38.380Z,26.75
2019-06-01T10:54:07.550Z,26.75
2019-06-01T10:56:38.767Z,26.94
2019-06-01T10:59:11.992Z,26.78
2019-06-01T11:01:42.931Z,25.98
2019-06-01T11:04:13.895Z,26.86
2019-06-01T11:06:48.330Z,26.89
2019-06-01T11:09:15.492Z,26.92
2019-06-01T11:11:47.829Z,26.54
2019-06-01T11:14:17.059Z,26.72
2019-06-01T11:16:54.853Z,27.05
2019-06-01T11:19:19.428Z,26.75
2019-06-01T11:21:48.595Z,26.66
2019-06-01T11:24:24.042Z,26.54
2019-06-01T11:26:53.248Z,26.96
2019-06-01T11:29:22.493Z,27.32
2019-06-01T11:31:51.768Z,27.52
2019-06-01T11:34:25.301Z,27.93
2019-06-01T11:37:05.036Z,27.48
2019-06-01T11:39:29.171Z,27.50
2019-06-01T11:42:01.459Z,27.74
2019-06-01T11:44:30.624Z,27.45
2019-06-01T11:47:01.213Z,27.39
2019-06-01T11:49:33.251Z,27.50
2019-06-01T11:52:04.980Z,27.76
2019-06-01T11:54:35.072Z,28.10
2019-06-01T11:57:05.997Z,28.33
2019-06-01T11:59:37.300Z,28.44
2019-06-01T12:02:09.011Z,28.26
2019-06-01T12:04:39.798Z,27.91
2019-06-01T12:07:17.471Z,28.34
2019-06-01T12:09:45.980Z,27.75
2019-06-01T12:12:15.331Z,27.67
2019-06-01T12:14:44.581Z,28.20
2019-06-01T12:17:14.672Z,28.39
2019-06-01T12:19:44.796Z,27.78
2019-06-01T12:22:17.744Z,27.85
2019-06-01T12:24:47.386Z,27.56
2019-06-01T12:27:16.843Z,27.93
2019-06-01T12:29:48.273Z,28.52
2019-06-01T12:32:18.070Z,28.66
2019-06-01T12:34:50.251Z,29.03
2019-06-01T12:37:34.505Z,29.44
2019-06-01T12:39:53.837Z,29.54
2019-06-01T12:42:24.068Z,29.41
2019-06-01T12:44:55.421Z,29.70
2019-06-01T12:47:43.932Z,29.78
2019-06-01T12:50:15.240Z,29.73
2019-06-01T12:52:46.577Z,29.53
2019-06-01T12:55:19.279Z,29.11
2019-06-01T12:57:49.276Z,28.66
2019-06-01T13:00:22.520Z,28.51
2019-06-01T13:03:06.734Z,28.92
2019-06-01T13:05:25.665Z,28.58
2019-06-01T13:08:02.251Z,22.74
2019-06-01T13:10:27.025Z,29.65
2019-06-01T13:12:57.440Z,29.13
2019-06-01T13:15:28.693Z,29.75
2019-06-01T13:17:58.022Z,29.62
2019-06-01T13:20:29.006Z,30.11
2019-06-01T13:22:59.410Z,29.16
2019-06-01T13:25:30.095Z,29.12
2019-06-01T13:28:00.462Z,28.96
2019-06-01T13:30:29.711Z,28.84
2019-06-01T13:33:01.455Z,29.43
2019-06-01T13:35:32.249Z,29.70
2019-06-01T13:38:11.830Z,29.38
2019-06-01T13:40:32.497Z,28.96
2019-06-01T13:43:01.695Z,29.26
2019-06-01T13:45:30.939Z,29.68
2019-06-01T13:48:03.687Z,29.40
2019-06-01T13:50:32.844Z,29.45
2019-06-01T13:53:05.947Z,28.92
2019-06-01T13:55:36.067Z,28.40
2019-06-01T13:58:06.185Z,28.78
2019-06-01T14:00:38.387Z,29.39
2019-06-01T14:03:07.745Z,30.10
2019-06-01T14:05:37.159Z,29.83
2019-06-01T14:08:07.378Z,30.15
2019-06-01T14:10:38.934Z,30.73
2019-06-01T14:13:20.453Z,30.37
2019-06-01T14:15:51.614Z,29.90
2019-06-01T14:18:20.805Z,29.94
2019-06-01T14:20:56.841Z,29.44
2019-06-01T14:23:27.000Z,29.52
2019-06-01T14:26:01.025Z,29.53
2019-06-01T14:28:32.123Z,29.69
2019-06-01T14:31:03.779Z,29.57
2019-06-01T14:33:32.934Z,29.94
2019-06-01T14:36:02.134Z,30.08
2019-06-01T14:38:45.934Z,29.59
2019-06-01T14:41:03.023Z,29.56
2019-06-01T14:43:36.081Z,30.17
2019-06-01T14:46:05.351Z,29.80
2019-06-01T14:48:35.612Z,30.30
2019-06-01T14:51:06.492Z,31.00
2019-06-01T14:53:39.084Z,31.38
2019-06-01T14:56:08.293Z,31.58
2019-06-01T14:58:39.303Z,31.02
2019-06-01T15:01:08.459Z,31.37
2019-06-01T15:03:37.686Z,30.20
2019-06-01T15:06:07.930Z,29.16
2019-06-01T15:09:02.477Z,29.90
2019-06-01T15:11:16.676Z,29.40
2019-06-01T15:13:45.911Z,29.68
2019-06-01T15:16:16.979Z,29.61
2019-06-01T15:18:47.360Z,29.51
2019-06-01T15:21:22.080Z,30.38
2019-06-01T15:23:51.956Z,29.87
2019-06-01T15:26:25.137Z,29.74
2019-06-01T15:28:59.295Z,29.94
2019-06-01T15:31:32.104Z,30.00
2019-06-01T15:34:01.848Z,29.94
2019-06-01T15:36:36.482Z,30.49
2019-06-01T15:39:23.517Z,29.95
2019-06-01T15:41:40.560Z,29.83
2019-06-01T15:44:10.893Z,30.08
2019-06-01T15:46:40.063Z,29.48
2019-06-01T15:49:09.391Z,29.61
2019-06-01T15:51:44.575Z,29.49
2019-06-01T15:54:13.789Z,29.67
2019-06-01T15:56:45.121Z,30.14
2019-06-01T15:59:17.544Z,30.08
2019-06-01T16:02:05.931Z,30.20
2019-06-01T16:04:35.309Z,30.45
2019-06-01T16:07:05.603Z,29.79
2019-06-01T16:09:42.631Z,29.87
2019-06-01T16:12:09.424Z,29.21
2019-06-01T16:14:39.741Z,29.08
2019-06-01T16:17:13.499Z,29.41
2019-06-01T16:19:46.588Z,29.46
2019-06-01T16:22:15.684Z,29.62
2019-06-01T16:24:48.805Z,29.51
2019-06-01T16:27:19.062Z,29.86
2019-06-01T16:29:48.360Z,30.10
2019-06-01T16:32:23.683Z,30.39
2019-06-01T16:34:52.904Z,29.88
2019-06-01T16:37:23.678Z,29.96
2019-06-01T16:39:59.627Z,30.05
2019-06-01T16:42:28.880Z,29.74
2019-06-01T16:44:58.010Z,29.56
2019-06-01T16:47:28.262Z,29.30
2019-06-01T16:50:00.117Z,29.18
2019-06-01T16:52:33.887Z,29.31
2019-06-01T16:55:08.927Z,29.13
2019-06-01T16:57:38.282Z,29.17
2019-06-01T17:00:08.664Z,28.92
2019-06-01T17:02:39.145Z,28.73
2019-06-01T17:05:11.673Z,28.81
2019-06-01T17:07:43.169Z,28.66
2019-06-01T17:10:25.861Z,28.54
2019-06-01T17:12:50.545Z,28.71
2019-06-01T17:15:25.573Z,28.83
2019-06-01T17:17:54.753Z,28.69
2019-06-01T17:20:42.044Z,28.46
2019-06-01T17:23:26.311Z,28.59
2019-06-01T17:25:43.970Z,28.38
2019-06-01T17:28:13.287Z,28.21
2019-06-01T17:30:45.457Z,28.05
2019-06-01T17:33:14.587Z,28.10
2019-06-01T17:35:46.399Z,27.78
2019-06-01T17:38:15.507Z,27.71
2019-06-01T17:40:49.711Z,27.83
2019-06-01T17:43:19.311Z,27.67
2019-06-01T17:45:48.674Z,27.79
2019-06-01T17:48:25.503Z,27.75
2019-06-01T17:50:48.654Z,27.59
2019-06-01T17:53:21.505Z,27.59
2019-06-01T17:55:52.347Z,27.58
2019-06-01T17:58:21.494Z,27.53
2019-06-01T18:00:57.441Z,27.52
2019-06-01T18:03:28.629Z,27.47
2019-06-01T18:06:01.777Z,27.41
2019-06-01T18:08:30.990Z,27.33
2019-06-01T18:11:00.126Z,27.37
2019-06-01T18:13:29.359Z,27.44
2019-06-01T18:16:00.559Z,27.52
2019-06-01T18:18:32.843Z,27.52
2019-06-01T18:21:02.286Z,27.52
2019-06-01T18:23:32.461Z,27.45
2019-06-01T18:26:02.561Z,27.39
2019-06-01T18:28:35.396Z,27.39
2019-06-01T18:31:04.627Z,27.35
2019-06-01T18:33:34.098Z,27.31
2019-06-01T18:36:08.105Z,27.36
2019-06-01T18:38:37.273Z,27.30
2019-06-01T18:41:18.612Z,26.94
2019-06-01T18:43:48.553Z,26.94
2019-06-01T18:46:21.924Z,26.83
2019-06-01T18:48:51.322Z,26.66
2019-06-01T18:51:22.272Z,26.63
2019-06-01T18:53:51.421Z,26.52
2019-06-01T18:56:21.944Z,26.41
2019-06-01T18:58:51.231Z,26.30
2019-06-01T19:01:21.140Z,26.27
2019-06-01T19:03:51.557Z,26.15
2019-06-01T19:06:20.687Z,26.10
2019-06-01T19:08:49.930Z,26.03
2019-06-01T19:11:32.930Z,26.05
2019-06-01T19:13:51.653Z,26.04
2019-06-01T19:16:21.247Z,26.00
2019-06-01T19:18:52.218Z,25.96
2019-06-01T19:21:26.120Z,25.89
2019-06-01T19:23:54.846Z,25.89
2019-06-01T19:26:24.182Z,25.91
2019-06-01T19:28:56.366Z,25.91
2019-06-01T19:31:25.518Z,25.52
2019-06-01T19:33:57.126Z,25.74
2019-06-01T19:36:30.039Z,25.67
2019-06-01T19:39:01.743Z,25.65
2019-06-01T19:41:44.137Z,25.27
2019-06-01T19:44:02.368Z,25.47
2019-06-01T19:46:31.492Z,25.45
2019-06-01T19:49:00.939Z,25.14
2019-06-01T19:51:32.452Z,25.23
2019-06-01T19:54:03.050Z,24.55
2019-06-01T19:56:38.194Z,24.65
2019-06-01T19:59:11.814Z,24.79
2019-06-01T20:01:41.303Z,24.55
2019-06-01T20:04:12.459Z,24.79
2019-06-01T20:06:44.872Z,24.86
2019-06-01T20:09:15.339Z,23.22
2019-06-01T20:11:58.617Z,24.69
2019-06-01T20:14:16.431Z,24.56
2019-06-01T20:16:48.058Z,24.46
2019-06-01T20:19:17.816Z,24.43
2019-06-01T20:21:50.342Z,24.11
2019-06-01T20:24:22.789Z,23.91
2019-06-01T20:26:54.470Z,23.99
2019-06-01T20:29:24.958Z,23.73
2019-06-01T20:31:55.610Z,23.77
2019-06-01T20:34:25.087Z,23.91
2019-06-01T20:36:57.192Z,23.48
2019-06-01T20:39:28.704Z,23.68
2019-06-01T20:41:57.843Z,23.90
2019-06-01T20:44:28.219Z,23.48
2019-06-01T20:47:00.267Z,23.75
2019-06-01T20:49:31.989Z,23.80
2019-06-01T20:52:01.207Z,23.72
2019-06-01T20:54:32.155Z,23.74
2019-06-01T20:57:02.081Z,23.86
2019-06-01T20:59:32.930Z,23.85
2019-06-01T21:02:08.835Z,23.90
2019-06-01T21:04:39.202Z,23.80
2019-06-01T21:07:08.402Z,23.80
2019-06-01T21:09:38.486Z,23.77
2019-06-01T21:12:08.005Z,23.75
2019-06-01T21:14:39.127Z,23.74
2019-06-01T21:17:08.615Z,23.75
2019-06-01T21:19:39.596Z,23.68
2019-06-01T21:22:08.952Z,23.69
2019-06-01T21:24:38.052Z,23.66
2019-06-01T21:27:12.247Z,23.58
2019-06-01T21:29:43.469Z,23.53
2019-06-01T21:32:15.123Z,23.42
2019-06-01T21:34:45.527Z,23.47
2019-06-01T21:37:19.896Z,23.36
2019-06-01T21:39:49.331Z,23.27
2019-06-01T21:42:19.632Z,22.95
2019-06-01T21:44:49.424Z,21.90
2019-06-01T21:47:21.695Z,21.43
2019-06-01T21:49:52.673Z,20.79
2019-06-01T21:52:26.237Z,20.47
2019-06-01T21:54:56.891Z,20.24
2019-06-01T21:57:30.222Z,20.18
2019-06-01T21:59:59.760Z,20.11
2019-06-01T22:02:29.597Z,20.20
2019-06-01T22:05:01.088Z,19.92
2019-06-01T22:07:33.295Z,19.97
2019-06-01T22:10:02.373Z,19.84
2019-06-01T22:12:34.000Z,20.01
2019-06-01T22:15:04.888Z,19.96
2019-06-01T22:17:36.014Z,20.21
2019-06-01T22:20:10.481Z,20.62
2019-06-01T22:22:39.589Z,20.54
2019-06-01T22:25:09.178Z,20.33
2019-06-01T22:27:38.517Z,20.31
2019-06-01T22:30:08.147Z,20.21
2019-06-01T22:32:41.500Z,20.41
2019-06-01T22:35:24.653Z,20.56
2019-06-01T22:37:54.006Z,20.24
2019-06-01T22:40:25.179Z,19.94
2019-06-01T22:42:56.560Z,19.92
2019-06-01T22:45:33.960Z,19.85
2019-06-01T22:48:07.456Z,19.93
2019-06-01T22:50:37.347Z,19.77
2019-06-01T22:53:10.117Z,19.58
2019-06-01T22:55:40.496Z,19.57
2019-06-01T22:58:09.590Z,19.64
2019-06-01T23:00:39.145Z,19.59
2019-06-01T23:03:08.271Z,19.77
2019-06-01T23:05:41.554Z,19.83
2019-06-01T23:08:11.406Z,19.73
2019-06-01T23:10:40.755Z,19.68
2019-06-01T23:13:10.353Z,19.67
2019-06-01T23:15:39.475Z,19.89
2019-06-01T23:18:08.618Z,20.11
2019-06-01T23:20:37.707Z,20.09
2019-06-01T23:23:06.785Z,20.14
2019-06-01T23:25:36.250Z,20.43
2019-06-01T23:28:08.623Z,20.15
2019-06-01T23:30:42.347Z,20.32
2019-06-01T23:33:11.486Z,20.70
2019-06-01T23:36:05.018Z,20.84
2019-06-01T23:38:34.164Z,20.88
2019-06-01T23:41:05.640Z,20.15
2019-06-01T23:43:37.241Z,19.78
2019-06-01T23:46:06.740Z,19.62
2019-06-01T23:48:38.355Z,19.53
2019-06-01T23:51:07.463Z,20.10
2019-06-01T23:53:36.578Z,19.99
2019-06-01T23:56:07.340Z,20.09
2019-06-01T23:58:36.551Z,20.19
